^^
Station Historical Data
Daily Summary for January 12, 2017 Units:  Metric    English   Both
« Previous Day
Next Day »
Daily Weekly Monthly Yearly Custom
  High: Low: Average:
Temperature: -17.8 °C -20.4 °C -19.7 °C
Dew Point: -17.8 °C -22.2 °C -20.8 °C
Humidity: Humidity% 74% 86%
Wind Speed: 0km/h 0km/h 7.4km/h
Wind Gust: 0km/h - -
Wind- - SSE
Pressure: 0 hPa 33328.4 hPa -
Precipitation: 187.96 mm    
Historical Graphs
 
 
Tabular Data for January 12, 2017
Time Temperature Dew Point Pressure Wind Wind Speed Wind Gust Humidity Rainfall Rate (Hourly) solar Conditions
-17.8 °C -17.8 °C 0 hPa Calm     Humidity% 0 mm SoftwareType W/m2 Conditions
00:00 -19.9 °C -22.2 °C 33616.2 hPa SE 8.2 km/h 26.9 km/h 74% 0 mm WeatherDisplay:10.37 W/m2 FEW
00:05 -19.9 °C -22.1 °C 33602.7 hPa South 6.8 km/h 29.8 km/h 74% 0 mm WeatherDisplay:10.37 W/m2 FEW
00:11 -19.9 °C -22.2 °C 33602.7 hPa ESE 9 km/h 29.8 km/h 74% 0 mm WeatherDisplay:10.37 W/m2 FEW
00:16 -19.9 °C -22.1 °C 33602.7 hPa SE 12.9 km/h 20.8 km/h 74% 0 mm WeatherDisplay:10.37 W/m2 FEW
00:21 -19.9 °C -22.1 °C 33602.7 hPa ESE 4.2 km/h 32.8 km/h 74% 0 mm WeatherDisplay:10.37 W/m2 FEW
00:26 -19.8 °C -22.1 °C 33602.7 hPa SSE 12.9 km/h 46.7 km/h 74% 0 mm WeatherDisplay:10.37 W/m2 FEW
00:31 -19.8 °C -22 °C 33602.7 hPa SE 19.2 km/h 41.7 km/h 74% 0 mm WeatherDisplay:10.37 W/m2 FEW
00:36 -19.8 °C -22 °C 33602.7 hPa SSE 6.8 km/h 10.3 km/h 74% 0 mm WeatherDisplay:10.37 W/m2 FEW
00:41 -19.8 °C -22 °C 33592.5 hPa SSE 5 km/h 26.9 km/h 74% 0 mm WeatherDisplay:10.37 W/m2 FEW
00:46 -19.8 °C -22 °C 33592.5 hPa SE 14.2 km/h 26.9 km/h 74% 0 mm WeatherDisplay:10.37 W/m2 FEW
00:51 -19.8 °C -22 °C 33592.5 hPa SE 8.2 km/h 18.2 km/h 74% 0 mm WeatherDisplay:10.37 W/m2 FEW
00:56 -19.8 °C -22 °C 33582.3 hPa ESE 16.3 km/h 29.8 km/h 74% 0 mm WeatherDisplay:10.37 W/m2 FEW
01:01 -19.8 °C -21.9 °C 33592.5 hPa SE 8.2 km/h 12.9 km/h 74% 0 mm WeatherDisplay:10.37 W/m2 FEW
01:06 -19.8 °C -21.8 °C 33582.3 hPa SE 5 km/h 23.8 km/h 75% 0 mm WeatherDisplay:10.37 W/m2 FEW
01:11 -19.8 °C -21.8 °C 33582.3 hPa South 11.9 km/h 26.9 km/h 75% 0 mm WeatherDisplay:10.37 W/m2 FEW
01:16 -19.7 °C -21.9 °C 33582.3 hPa SSW 11.1 km/h 38.8 km/h 74% 0 mm WeatherDisplay:10.37 W/m2 FEW
01:21 -19.7 °C -21.8 °C 33568.8 hPa ESE 15 km/h 32.8 km/h 75% 0 mm WeatherDisplay:10.37 W/m2 FEW
01:26 -19.7 °C -21.8 °C 33568.8 hPa South 11.4 km/h 17.9 km/h 75% 0 mm WeatherDisplay:10.37 W/m2 FEW
01:31 -19.7 °C -21.8 °C 33568.8 hPa South 5.6 km/h 36.2 km/h 75% 0 mm WeatherDisplay:10.37 W/m2 FEW
01:36 -19.7 °C -21.7 °C 33568.8 hPa East 4.3 km/h 20.8 km/h 76% 0 mm WeatherDisplay:10.37 W/m2 FEW
01:41 -19.8 °C -21.8 °C 33568.8 hPa Calm   9 km/h 76% 0 mm WeatherDisplay:10.37 W/m2 FEW
01:46 -19.7 °C -21.7 °C 33568.8 hPa South 11.9 km/h 29.8 km/h 76% 0 mm WeatherDisplay:10.37 W/m2 FEW
01:51 -19.7 °C -21.6 °C 33568.8 hPa SSE 11.9 km/h 31.1 km/h 77% 0 mm WeatherDisplay:10.37 W/m2 FEW
01:56 -19.7 °C -21.6 °C 33568.8 hPa SE 6.9 km/h 23.8 km/h 77% 0 mm WeatherDisplay:10.37 W/m2 FEW
02:01 -19.7 °C -21.6 °C 33558.6 hPa South 11.9 km/h 29.8 km/h 77% 0 mm WeatherDisplay:10.37 W/m2 FEW
02:06 -19.7 °C -21.6 °C 33558.6 hPa SW 3.4 km/h 9 km/h 77% 0 mm WeatherDisplay:10.37 W/m2 FEW
02:11 -19.7 °C -21.6 °C 33568.8 hPa SSE 10.9 km/h 20.9 km/h 77% 0 mm WeatherDisplay:10.37 W/m2 FEW
02:16 -19.7 °C -21.6 °C 33558.6 hPa SE 7.6 km/h 11.9 km/h 77% 0 mm WeatherDisplay:10.37 W/m2 FEW
02:21 -19.7 °C -21.6 °C 33558.6 hPa SSE 14.5 km/h 29.8 km/h 77% 0 mm WeatherDisplay:10.37 W/m2 FEW
02:26 -19.7 °C -21.6 °C 33558.6 hPa SE 10.3 km/h 15 km/h 77% 0 mm WeatherDisplay:10.37 W/m2 FEW
02:31 -19.7 °C -21.6 °C 33558.6 hPa South 11.1 km/h 20.9 km/h 77% 0 mm WeatherDisplay:10.37 W/m2 FEW
02:36 -19.7 °C -21.7 °C 33545.1 hPa SSW 11.9 km/h 25.9 km/h 76% 0 mm WeatherDisplay:10.37 W/m2 FEW
02:41 -19.7 °C -21.7 °C 33545.1 hPa WSW 9.8 km/h 17.9 km/h 76% 0 mm WeatherDisplay:10.37 W/m2 FEW
02:46 -19.7 °C -21.7 °C 33558.6 hPa SSE 8 km/h 29.8 km/h 76% 0 mm WeatherDisplay:10.37 W/m2 FEW
02:51 -19.7 °C -21.7 °C 33545.1 hPa SE 11.1 km/h 26.9 km/h 76% 0 mm WeatherDisplay:10.37 W/m2 FEW
02:56 -19.7 °C -21.7 °C 33545.1 hPa SSE 8 km/h 12.9 km/h 76% 0 mm WeatherDisplay:10.37 W/m2 FEW
03:01 -19.7 °C -21.8 °C 33545.1 hPa SSE 11.9 km/h 15 km/h 75% 0 mm WeatherDisplay:10.37 W/m2 FEW
03:06 -19.7 °C -21.8 °C 33545.1 hPa SSW 10.1 km/h 26.9 km/h 75% 0 mm WeatherDisplay:10.37 W/m2 FEW
03:11 -19.7 °C -21.8 °C 33545.1 hPa ENE 7.2 km/h 29.8 km/h 75% 0 mm WeatherDisplay:10.37 W/m2 FEW
03:16 -19.7 °C -21.8 °C 33545.1 hPa SE 8.2 km/h 20.9 km/h 75% 0 mm WeatherDisplay:10.37 W/m2 FEW
03:21 -19.7 °C -21.7 °C 33534.9 hPa South 6.9 km/h 11.9 km/h 76% 0 mm WeatherDisplay:10.37 W/m2 FEW
03:26 -19.7 °C -21.8 °C 33534.9 hPa SSW 6.8 km/h 15 km/h 75% 0 mm WeatherDisplay:10.37 W/m2 FEW
03:31 -19.7 °C -21.8 °C 33534.9 hPa SSE 5.6 km/h 15 km/h 75% 0 mm WeatherDisplay:10.37 W/m2 FEW
03:36 -19.7 °C -21.8 °C 33534.9 hPa South 12.2 km/h 29.8 km/h 75% 0 mm WeatherDisplay:10.37 W/m2 FEW
03:41 -19.7 °C -21.8 °C 33534.9 hPa SE 13.2 km/h 33.6 km/h 75% 0 mm WeatherDisplay:10.37 W/m2 FEW
03:46 -19.7 °C -21.8 °C 33524.8 hPa South 15.3 km/h 29.8 km/h 75% 0 mm WeatherDisplay:10.37 W/m2 FEW
03:51 -19.7 °C -21.8 °C 33524.8 hPa SE 13.7 km/h 29.8 km/h 75% 0 mm WeatherDisplay:10.37 W/m2 FEW
03:56 -19.8 °C -21.8 °C 33524.8 hPa SE 12.7 km/h 26.9 km/h 75% 0 mm WeatherDisplay:10.37 W/m2 FEW
04:01 -19.8 °C -21.8 °C 33524.8 hPa ENE 6.8 km/h 17.9 km/h 76% 0 mm WeatherDisplay:10.37 W/m2 FEW
04:06 -19.8 °C -21.8 °C 33524.8 hPa SW 9.8 km/h 26.9 km/h 76% 0 mm WeatherDisplay:10.37 W/m2 FEW
04:11 -19.7 °C -21.7 °C 33524.8 hPa SSE 15.6 km/h 20.9 km/h 76% 0 mm WeatherDisplay:10.37 W/m2 FEW
04:16 -19.7 °C -21.7 °C 33524.8 hPa ESE 5.1 km/h 15 km/h 76% 0 mm WeatherDisplay:10.37 W/m2 FEW
04:21 -19.7 °C -21.7 °C 33511.2 hPa SSE 8.5 km/h 23.8 km/h 76% 0 mm WeatherDisplay:10.37 W/m2 FEW
04:26 -19.7 °C -21.7 °C 33511.2 hPa NE 9 km/h 18.2 km/h 76% 0 mm WeatherDisplay:10.37 W/m2 FEW
04:31 -19.6 °C -21.6 °C 33511.2 hPa SE 13.2 km/h 23.8 km/h 76% 0 mm WeatherDisplay:10.37 W/m2 FEW
04:36 -19.6 °C -21.6 °C 33501.1 hPa South 13.7 km/h 29.8 km/h 77% 0 mm WeatherDisplay:10.37 W/m2 FEW
04:41 -19.6 °C -21.6 °C 33511.2 hPa ESE 9.8 km/h 29.8 km/h 76% 0 mm WeatherDisplay:10.37 W/m2 FEW
04:46 -19.6 °C -21.6 °C 33501.1 hPa SSE 5.5 km/h 23.8 km/h 77% 0 mm WeatherDisplay:10.37 W/m2 FEW
04:51 -19.6 °C -21.6 °C 33501.1 hPa SSE 10.1 km/h 25.9 km/h 77% 0 mm WeatherDisplay:10.37 W/m2 FEW
04:56 -19.6 °C -21.5 °C 33501.1 hPa SSE 19.6 km/h 32.8 km/h 77% 0 mm WeatherDisplay:10.37 W/m2 FEW
05:01 -19.6 °C -21.5 °C 33501.1 hPa South 15.3 km/h 29.8 km/h 77% 0 mm WeatherDisplay:10.37 W/m2 FEW
05:06 -19.6 °C -21.5 °C 33501.1 hPa SSE 15 km/h 28.5 km/h 77% 0 mm WeatherDisplay:10.37 W/m2 FEW
05:11 -19.6 °C -21.5 °C 33501.1 hPa South 14.2 km/h 35.7 km/h 77% 0 mm WeatherDisplay:10.37 W/m2 FEW
05:16 -19.6 °C -21.5 °C 33501.1 hPa SE 10.1 km/h 20.9 km/h 77% 0 mm WeatherDisplay:10.37 W/m2 FEW
05:21 -19.6 °C -21.5 °C 33501.1 hPa SE 10.1 km/h 17.9 km/h 77% 0 mm WeatherDisplay:10.37 W/m2 FEW
05:26 -19.6 °C -21.5 °C 33490.9 hPa SE 9.7 km/h 26.9 km/h 77% 0 mm WeatherDisplay:10.37 W/m2 FEW
05:31 -19.6 °C -21.5 °C 33490.9 hPa SW 6.9 km/h 12.9 km/h 77% 0 mm WeatherDisplay:10.37 W/m2 FEW
05:36 -19.6 °C -21.5 °C 33490.9 hPa SSW 14.2 km/h 32.8 km/h 77% 0 mm WeatherDisplay:10.37 W/m2 FEW
05:41 -19.6 °C -21.4 °C 33490.9 hPa SSE 10.9 km/h 20.8 km/h 78% 0 mm WeatherDisplay:10.37 W/m2 FEW
05:46 -19.6 °C -21.4 °C 33490.9 hPa SE 1.3 km/h 11.9 km/h 78% 0 mm WeatherDisplay:10.37 W/m2 FEW
05:51 -19.6 °C -21.3 °C 33490.9 hPa East 12.2 km/h 20.9 km/h 79% 0 mm WeatherDisplay:10.37 W/m2 FEW
05:56 -19.6 °C -21.3 °C 33477.4 hPa South 17.9 km/h 29.8 km/h 79% 0 mm WeatherDisplay:10.37 W/m2 FEW
06:01 -19.7 °C -21.3 °C 33477.4 hPa SW 6.3 km/h 29.8 km/h 80% 0 mm WeatherDisplay:10.37 W/m2 FEW
06:06 -19.7 °C -21.2 °C 33477.4 hPa South 6.8 km/h 20.9 km/h 82% 0 mm WeatherDisplay:10.37 W/m2 FEW
06:11 -19.8 °C -21.2 °C 33477.4 hPa SW 16.6 km/h 32.8 km/h 83% 0 mm WeatherDisplay:10.37 W/m2 FEW
06:16 -19.8 °C -21.1 °C 33477.4 hPa SSW 10.1 km/h 35.7 km/h 84% 0 mm WeatherDisplay:10.37 W/m2 FEW
06:21 -19.8 °C -21.2 °C 33477.4 hPa South 11.4 km/h 29.8 km/h 84% 0 mm WeatherDisplay:10.37 W/m2 FEW
06:26 -19.8 °C -21.2 °C 33467.2 hPa SSE 8 km/h 29.8 km/h 83% 0 mm WeatherDisplay:10.37 W/m2 FEW
06:31 -19.8 °C -21.2 °C 33467.2 hPa South 10.9 km/h 17.9 km/h 83% 0 mm WeatherDisplay:10.37 W/m2 FEW
06:36 -19.8 °C -21.2 °C 33477.4 hPa SSE 5.1 km/h 7.7 km/h 83% 0 mm WeatherDisplay:10.37 W/m2 FEW
06:41 -19.8 °C -21.3 °C 33467.2 hPa SE 6.4 km/h 20.8 km/h 82% 0 mm WeatherDisplay:10.37 W/m2 FEW
06:46 -19.8 °C -21.2 °C 33467.2 hPa SSW 5.1 km/h 17.9 km/h 82% 0 mm WeatherDisplay:10.37 W/m2 FEW
06:51 -19.8 °C -21.2 °C 33467.2 hPa SE 13.7 km/h 32.8 km/h 82% 0 mm WeatherDisplay:10.37 W/m2 FEW
06:56 -19.8 °C -21.3 °C 33467.2 hPa SSE 14 km/h 14 km/h 82% 0 mm WeatherDisplay:10.37 W/m2 FEW
07:01 -19.8 °C -21.2 °C 33467.2 hPa South 11.4 km/h 17.9 km/h 83% 0 mm WeatherDisplay:10.37 W/m2 FEW
07:06 -19.9 °C -21.3 °C 33467.2 hPa SE 9 km/h 29.8 km/h 82% 0 mm WeatherDisplay:10.37 W/m2 FEW
07:11 -19.9 °C -21.3 °C 33467.2 hPa SE 9.8 km/h 23.8 km/h 83% 0 mm WeatherDisplay:10.37 W/m2 FEW
07:16 -19.9 °C -21.2 °C 33467.2 hPa South 10.9 km/h 38.8 km/h 85% 0 mm WeatherDisplay:10.37 W/m2 FEW
07:21 -20.1 °C -21.3 °C 33467.2 hPa SSE 5.1 km/h 29.8 km/h 85% 0 mm WeatherDisplay:10.37 W/m2 FEW
07:26 -20.1 °C -21.2 °C 33467.2 hPa SSE 14.5 km/h 29.8 km/h 86% 0 mm WeatherDisplay:10.37 W/m2 FEW
07:31 -20.1 °C -21.2 °C 33467.2 hPa SSE 14.2 km/h 20.9 km/h 86% 0 mm WeatherDisplay:10.37 W/m2 FEW
07:36 -20.2 °C -21.2 °C 33467.2 hPa SE 9.3 km/h 17.9 km/h 87% 0 mm WeatherDisplay:10.37 W/m2 FEW
07:41 -20.2 °C -21.2 °C 33453.7 hPa SSW 18.7 km/h 29.8 km/h 87% 7.62 mm WeatherDisplay:10.37 W/m2 RA
07:46 -20.2 °C -21.2 °C 33453.7 hPa NNW 6.9 km/h 20.9 km/h 87% 7.62 mm WeatherDisplay:10.37 W/m2 RA
07:51 -20.2 °C -21.3 °C 33453.7 hPa ESE 10.9 km/h 29.8 km/h 87% 7.62 mm WeatherDisplay:10.37 W/m2 FEW
07:56 -20.2 °C -21.3 °C 33453.7 hPa South 16.3 km/h 29.8 km/h 87% 7.62 mm WeatherDisplay:10.37 W/m2 FEW
08:02 -20.2 °C -21.3 °C 33453.7 hPa SSE 7.2 km/h 17.9 km/h 87% 7.62 mm WeatherDisplay:10.37 W/m2 FEW
08:07 -20.2 °C -21.3 °C 33453.7 hPa South 8 km/h 12.9 km/h 87% 7.62 mm WeatherDisplay:10.37 W/m2 FEW
08:12 -20.2 °C -21.3 °C 33453.7 hPa East 3.9 km/h 15 km/h 87% 7.62 mm WeatherDisplay:10.37 W/m2 FEW
08:17 -20.2 °C -21.3 °C 33453.7 hPa SE 9.8 km/h 29.8 km/h 87% 7.62 mm WeatherDisplay:10.37 W/m2 FEW
08:22 -20.3 °C -21.2 °C 33453.7 hPa SSE 5.5 km/h 26.9 km/h 88% 7.62 mm WeatherDisplay:10.37 W/m2 FEW
08:27 -20.3 °C -21.2 °C 33467.2 hPa ESE 9.8 km/h 38.8 km/h 88% 7.62 mm WeatherDisplay:10.37 W/m2 FEW
08:32 -20.3 °C -21.2 °C 33453.7 hPa SSE 19.2 km/h 32.8 km/h 88% 7.62 mm WeatherDisplay:10.37 W/m2 FEW
08:37 -20.3 °C -21.3 °C 33453.7 hPa South 3.9 km/h 15 km/h 88% 12.7 mm WeatherDisplay:10.37 W/m2 RA
08:42 -20.3 °C -21.2 °C 33467.2 hPa ESE 3.1 km/h 9 km/h 89% 7.62 mm WeatherDisplay:10.37 W/m2 RA
08:47 -20.4 °C -21.2 °C 33467.2 hPa East 7.2 km/h 11.9 km/h 89% 7.62 mm WeatherDisplay:10.37 W/m2 FEW
08:52 -20.4 °C -21.2 °C 33453.7 hPa SE 9.7 km/h 23.8 km/h 89% 7.62 mm WeatherDisplay:10.37 W/m2 FEW
08:57 -20.4 °C -21.3 °C 33467.2 hPa SW 4.3 km/h 5.1 km/h 88% 7.62 mm WeatherDisplay:10.37 W/m2 FEW
09:02 -20.3 °C -21.3 °C 33467.2 hPa SSE 9 km/h 23.3 km/h 87% 12.7 mm WeatherDisplay:10.37 W/m2 RA
09:07 -20.3 °C -21.3 °C 33467.2 hPa SE 11.4 km/h 29.8 km/h 87% 12.7 mm WeatherDisplay:10.37 W/m2 RA
09:12 -20.3 °C -21.4 °C 33453.7 hPa ESE 13.2 km/h 29.8 km/h 86% 12.7 mm WeatherDisplay:10.37 W/m2 FEW
09:17 -20.2 °C -21.3 °C 33467.2 hPa SE 7.2 km/h 20.9 km/h 86% 12.7 mm WeatherDisplay:10.37 W/m2 FEW
09:22 -20.2 °C -21.3 °C 33453.7 hPa ESE 11.4 km/h 26.9 km/h 86% 12.7 mm WeatherDisplay:10.37 W/m2 FEW
09:27 -20.2 °C -21.3 °C 33453.7 hPa South 12.9 km/h 26.9 km/h 86% 12.7 mm WeatherDisplay:10.37 W/m2 FEW
09:32 -20.3 °C -21.4 °C 33467.2 hPa ENE 8.2 km/h 35.7 km/h 86% 12.7 mm WeatherDisplay:10.37 W/m2 FEW
09:37 -20.3 °C -21.4 °C 33453.7 hPa ENE 4.2 km/h 20.9 km/h 86% 7.62 mm WeatherDisplay:10.37 W/m2 FEW
09:42 -20.3 °C -21.3 °C 33453.7 hPa SE 14.8 km/h 29.8 km/h 87% 7.62 mm WeatherDisplay:10.37 W/m2 FEW
09:47 -20.3 °C -21.3 °C 33467.2 hPa South 4.3 km/h 23.3 km/h 87% 7.62 mm WeatherDisplay:10.37 W/m2 FEW
09:52 -20.3 °C -21.3 °C 33453.7 hPa SE 2.9 km/h 26.9 km/h 87% 7.62 mm WeatherDisplay:10.37 W/m2 FEW
09:57 -20.3 °C -21.2 °C 33467.2 hPa SE 9.7 km/h 23.8 km/h 88% 7.62 mm WeatherDisplay:10.37 W/m2 FEW
10:02 -20.3 °C -21.3 °C 33453.7 hPa WSW 8.2 km/h 20.9 km/h 88% 7.62 mm WeatherDisplay:10.37 W/m2 RA
10:07 -20.3 °C -21.2 °C 33453.7 hPa West 7.6 km/h 20.9 km/h 89% 7.62 mm WeatherDisplay:10.37 W/m2 RA
10:12 -20.3 °C -21.2 °C 33453.7 hPa SE 7.6 km/h 17.9 km/h 89% 7.62 mm WeatherDisplay:10.37 W/m2 FEW
10:17 -20.3 °C -21.2 °C 33467.2 hPa ESE 9.3 km/h 17.9 km/h 89% 7.62 mm WeatherDisplay:10.37 W/m2 FEW
10:22 -20.3 °C -21.2 °C 33467.2 hPa SE 5.5 km/h 11.9 km/h 89% 7.62 mm WeatherDisplay:10.37 W/m2 FEW
10:27 -20.3 °C -21.2 °C 33467.2 hPa South 7.6 km/h 15 km/h 89% 7.62 mm WeatherDisplay:10.37 W/m2 FEW
10:32 -20.3 °C -21.1 °C 33467.2 hPa ESE 11.9 km/h 29.8 km/h 90% 12.7 mm WeatherDisplay:10.37 W/m2 RA
10:37 -20.3 °C -21.1 °C 33467.2 hPa SE 10.9 km/h 29.8 km/h 90% 12.7 mm WeatherDisplay:10.37 W/m2 RA
10:42 -20.3 °C -21.1 °C 33467.2 hPa SSW 8 km/h 20.9 km/h 90% 12.7 mm WeatherDisplay:10.37 W/m2 FEW
10:47 -20.3 °C -21.1 °C 33467.2 hPa SSE 11.6 km/h 20.9 km/h 90% 12.7 mm WeatherDisplay:10.37 W/m2 FEW
10:52 -20.3 °C -21.1 °C 33453.7 hPa SSE 11.4 km/h 12.9 km/h 90% 12.7 mm WeatherDisplay:10.37 W/m2 FEW
10:57 -20.3 °C -21.1 °C 33467.2 hPa SE 8.2 km/h 36.2 km/h 90% 12.7 mm WeatherDisplay:10.37 W/m2 FEW
11:02 -20.3 °C -21.1 °C 33467.2 hPa SSE 13.2 km/h 26.9 km/h 90% 7.62 mm WeatherDisplay:10.37 W/m2 FEW
11:07 -20.3 °C -21.2 °C 33467.2 hPa SSE 7.6 km/h 23.8 km/h 89% 7.62 mm WeatherDisplay:10.37 W/m2 FEW
11:12 -20.2 °C -21.1 °C 33453.7 hPa SSE 6.9 km/h 17.9 km/h 89% 7.62 mm WeatherDisplay:10.37 W/m2 FEW
11:17 -20.2 °C -21.1 °C 33453.7 hPa SSW 10.9 km/h 23.8 km/h 89% 7.62 mm WeatherDisplay:10.37 W/m2 FEW
11:22 -20.2 °C -21.1 °C 33453.7 hPa SSE 10.1 km/h 20.9 km/h 89% 7.62 mm WeatherDisplay:10.37 W/m2 FEW
11:27 -20.2 °C -21.1 °C 33453.7 hPa SSW 9.7 km/h 26.9 km/h 88% 7.62 mm WeatherDisplay:10.37 W/m2 FEW
11:32 -20.2 °C -21.1 °C 33453.7 hPa SSE 6.9 km/h 20.9 km/h 88% 0 mm WeatherDisplay:10.37 W/m2 FEW
11:37 -20.1 °C -21.1 °C 33453.7 hPa SE 10.1 km/h 15 km/h 88% 7.62 mm WeatherDisplay:10.37 W/m2 RA
11:42 -20.1 °C -21 °C 33443.5 hPa South 8.2 km/h 26.9 km/h 88% 7.62 mm WeatherDisplay:10.37 W/m2 RA
11:47 -20.1 °C -21 °C 33453.7 hPa ENE 10.3 km/h 23.8 km/h 88% 7.62 mm WeatherDisplay:10.37 W/m2 FEW
11:52 -20.1 °C -20.9 °C 33453.7 hPa SE 8.9 km/h 26.9 km/h 88% 7.62 mm WeatherDisplay:10.37 W/m2 FEW
11:57 -20.1 °C -20.9 °C 33453.7 hPa SSE 11.4 km/h 23.8 km/h 88% 7.62 mm WeatherDisplay:10.37 W/m2 FEW
12:02 -20.1 °C -20.9 °C 33453.7 hPa South 8.5 km/h 29.8 km/h 88% 7.62 mm WeatherDisplay:10.37 W/m2 FEW
12:07 -20 °C -20.9 °C 33453.7 hPa SE 2.6 km/h 29.8 km/h 88% 7.62 mm WeatherDisplay:10.37 W/m2 FEW
12:12 -19.9 °C -20.9 °C 33453.7 hPa ESE 9 km/h 29.8 km/h 88% 7.62 mm WeatherDisplay:10.37 W/m2 FEW
12:17 -19.9 °C -20.9 °C 33443.5 hPa ENE 9.8 km/h 20.9 km/h 88% 7.62 mm WeatherDisplay:10.37 W/m2 FEW
12:22 -19.9 °C -20.9 °C 33453.7 hPa WSW 15 km/h 17.9 km/h 88% 7.62 mm WeatherDisplay:10.37 W/m2 FEW
12:27 -19.9 °C -20.9 °C 33453.7 hPa South 5.6 km/h 23.8 km/h 88% 7.62 mm WeatherDisplay:10.37 W/m2 FEW
12:32 -19.9 °C -20.9 °C 33453.7 hPa South 6.8 km/h 26.9 km/h 88% 7.62 mm WeatherDisplay:10.37 W/m2 FEW
12:37 -19.9 °C -20.8 °C 33443.5 hPa South 12.4 km/h 23.8 km/h 89% 0 mm WeatherDisplay:10.37 W/m2 FEW
12:42 -19.9 °C -20.8 °C 33443.5 hPa SE 5.6 km/h 20.9 km/h 89% 0 mm WeatherDisplay:10.37 W/m2 FEW
12:47 -19.9 °C -20.8 °C 33443.5 hPa SSE 11.9 km/h 25.9 km/h 89% 0 mm WeatherDisplay:10.37 W/m2 FEW
12:52 -19.9 °C -20.8 °C 33443.5 hPa SSE 8 km/h 29.8 km/h 89% 0 mm WeatherDisplay:10.37 W/m2 FEW
12:57 -19.9 °C -20.8 °C 33443.5 hPa East 7.2 km/h 15.6 km/h 89% 0 mm WeatherDisplay:10.37 W/m2 FEW
13:02 -19.9 °C -20.8 °C 33443.5 hPa South 6.8 km/h 9 km/h 89% 0 mm WeatherDisplay:10.37 W/m2 FEW
13:07 -19.9 °C -20.8 °C 33443.5 hPa South 14 km/h 18.2 km/h 89% 0 mm WeatherDisplay:10.37 W/m2 FEW
13:12 -19.9 °C -20.7 °C 33443.5 hPa South 6 km/h 29.8 km/h 89% 0 mm WeatherDisplay:10.37 W/m2 FEW
13:17 -19.9 °C -20.7 °C 33443.5 hPa SE 2.9 km/h 11.9 km/h 90% 0 mm WeatherDisplay:10.37 W/m2 FEW
13:22 -19.9 °C -20.7 °C 33443.5 hPa East 7.7 km/h 11.9 km/h 90% 0 mm WeatherDisplay:10.37 W/m2 FEW
13:27 -19.9 °C -20.6 °C 33443.5 hPa SSE 5.5 km/h 29.8 km/h 91% 7.62 mm WeatherDisplay:10.37 W/m2 RA
13:29 -19.9 °C -20.6 °C 33443.5 hPa SSE 13.5 km/h 17.9 km/h 91% 7.62 mm WeatherDisplay:10.37 W/m2 RA
13:34 -19.9 °C -20.7 °C 33443.5 hPa SSE 14 km/h 29.8 km/h 91% 7.62 mm WeatherDisplay:10.37 W/m2 FEW
13:39 -19.9 °C -20.6 °C 33443.5 hPa South 8.9 km/h 25.9 km/h 92% 12.7 mm WeatherDisplay:10.37 W/m2 RA
13:44 -19.9 °C -20.6 °C 33443.5 hPa SE 10.1 km/h 26.9 km/h 92% 12.7 mm WeatherDisplay:10.37 W/m2 RA
13:49 -19.9 °C -20.6 °C 33443.5 hPa SSW 5.5 km/h 15.6 km/h 92% 12.7 mm WeatherDisplay:10.37 W/m2 RA
13:54 -19.9 °C -20.6 °C 33433.4 hPa ESE 9.8 km/h 26.9 km/h 92% 20.32 mm WeatherDisplay:10.37 W/m2 RA
13:59 -19.9 °C -20.5 °C 33443.5 hPa SSE 2.1 km/h 5.1 km/h 92% 20.32 mm WeatherDisplay:10.37 W/m2 RA
14:04 -19.9 °C -20.5 °C 33433.4 hPa SE 4.3 km/h 20.9 km/h 92% 20.32 mm WeatherDisplay:10.37 W/m2 FEW
14:09 -19.9 °C -20.5 °C 33433.4 hPa ESE 12.4 km/h 12.4 km/h 92% 20.32 mm WeatherDisplay:10.37 W/m2 FEW
14:14 -19.9 °C -20.5 °C 33433.4 hPa SSE 3.4 km/h 11.9 km/h 92% 20.32 mm WeatherDisplay:10.37 W/m2 FEW
14:19 -19.9 °C -20.5 °C 33433.4 hPa South 8.9 km/h 23.3 km/h 92% 25.4 mm WeatherDisplay:10.37 W/m2 RA
14:24 -19.9 °C -20.5 °C 33443.5 hPa SE 4.7 km/h 20.9 km/h 92% 25.4 mm WeatherDisplay:10.37 W/m2 RA
14:29 -19.8 °C -20.4 °C 33443.5 hPa SSE 5.6 km/h 18.2 km/h 92% 33.02 mm WeatherDisplay:10.37 W/m2 RA
14:34 -19.8 °C -20.4 °C 33443.5 hPa South 0.8 km/h 15 km/h 92% 33.02 mm WeatherDisplay:10.37 W/m2 RA
14:39 -19.8 °C -20.4 °C 33443.5 hPa Calm   9 km/h 92% 33.02 mm WeatherDisplay:10.37 W/m2 RA
14:44 -19.8 °C -20.4 °C 33443.5 hPa SSE 4.7 km/h 15 km/h 92% 33.02 mm WeatherDisplay:10.37 W/m2 RA
14:49 -19.8 °C -20.4 °C 33443.5 hPa SSE 7.2 km/h 20.9 km/h 92% 33.02 mm WeatherDisplay:10.37 W/m2 RA
14:54 -19.8 °C -20.4 °C 33443.5 hPa SE 5.5 km/h 9 km/h 92% 33.02 mm WeatherDisplay:10.37 W/m2 RA
14:59 -19.8 °C -20.4 °C 33433.4 hPa SSE 5.1 km/h 15 km/h 92% 38.1 mm WeatherDisplay:10.37 W/m2 RA
15:04 -19.8 °C -20.4 °C 33433.4 hPa SE 10.6 km/h 23.8 km/h 92% 38.1 mm WeatherDisplay:10.37 W/m2 RA
15:09 -19.8 °C -20.4 °C 33433.4 hPa SE 10.6 km/h 20.9 km/h 92% 38.1 mm WeatherDisplay:10.37 W/m2 RA
15:14 -19.8 °C -20.4 °C 33433.4 hPa SE 16.6 km/h 29.8 km/h 92% 38.1 mm WeatherDisplay:10.37 W/m2 FEW
15:19 -19.8 °C -20.4 °C 33433.4 hPa South 12.9 km/h 15.6 km/h 92% 38.1 mm WeatherDisplay:10.37 W/m2 RA
15:24 -19.8 °C -20.4 °C 33433.4 hPa SSW 4.3 km/h 11.9 km/h 92% 38.1 mm WeatherDisplay:10.37 W/m2 RA
15:29 -19.8 °C -20.4 °C 33433.4 hPa SSE 3.9 km/h 11.9 km/h 92% 38.1 mm WeatherDisplay:10.37 W/m2 RA
15:34 -19.8 °C -20.4 °C 33433.4 hPa ESE 7.6 km/h 23.3 km/h 92% 38.1 mm WeatherDisplay:10.37 W/m2 RA
15:39 -19.8 °C -20.4 °C 33433.4 hPa SE 9.3 km/h 20.9 km/h 92% 38.1 mm WeatherDisplay:10.37 W/m2 RA
15:44 -19.8 °C -20.4 °C 33433.4 hPa SSE 6.8 km/h 11.9 km/h 92% 38.1 mm WeatherDisplay:10.37 W/m2 RA
15:49 -19.8 °C -20.4 °C 33433.4 hPa SSE 4.2 km/h 11.9 km/h 92% 38.1 mm WeatherDisplay:10.37 W/m2 RA
15:54 -19.8 °C -20.4 °C 33433.4 hPa SSE 8.9 km/h 12.9 km/h 92% 33.02 mm WeatherDisplay:10.37 W/m2 FEW
15:59 -19.8 °C -20.4 °C 33433.4 hPa Calm   6 km/h 92% 25.4 mm WeatherDisplay:10.37 W/m2 FEW
16:04 -19.8 °C -20.4 °C 33419.8 hPa NE 0.8 km/h 23.8 km/h 92% 20.32 mm WeatherDisplay:10.37 W/m2 FEW
16:09 -19.8 °C -20.4 °C 33419.8 hPa SE 2.6 km/h 9 km/h 92% 25.4 mm WeatherDisplay:10.37 W/m2 RA
16:14 -19.8 °C -20.4 °C 33419.8 hPa SSE 6.4 km/h 11.9 km/h 92% 25.4 mm WeatherDisplay:10.37 W/m2 RA
16:19 -19.8 °C -20.4 °C 33419.8 hPa SE 12.2 km/h 20.9 km/h 92% 25.4 mm WeatherDisplay:10.37 W/m2 RA
16:24 -19.8 °C -20.4 °C 33419.8 hPa SSE 0.5 km/h 11.9 km/h 92% 25.4 mm WeatherDisplay:10.37 W/m2 RA
16:29 -19.8 °C -20.4 °C 33419.8 hPa South 1 km/h 3.1 km/h 92% 25.4 mm WeatherDisplay:10.37 W/m2 RA
16:34 -19.8 °C -20.4 °C 33419.8 hPa SSW 1.8 km/h 9 km/h 92% 25.4 mm WeatherDisplay:10.37 W/m2 RA
16:39 -19.8 °C -20.4 °C 33419.8 hPa Calm     92% 25.4 mm WeatherDisplay:10.37 W/m2 RA
16:44 -19.8 °C -20.4 °C 33419.8 hPa Calm   3.1 km/h 92% 20.32 mm WeatherDisplay:10.37 W/m2 RA
16:49 -19.8 °C -20.4 °C 33419.8 hPa Calm     92% 20.32 mm WeatherDisplay:10.37 W/m2 FEW
16:54 -19.8 °C -20.4 °C 33419.8 hPa South 4.7 km/h 6 km/h 92% 20.32 mm WeatherDisplay:10.37 W/m2 FEW
16:59 -19.8 °C -20.4 °C 33419.8 hPa ENE 1.6 km/h 11.9 km/h 92% 20.32 mm WeatherDisplay:10.37 W/m2 FEW
17:04 -19.8 °C -20.4 °C 33419.8 hPa SE 1 km/h 3.1 km/h 92% 25.4 mm WeatherDisplay:10.37 W/m2 RA
17:09 -19.7 °C -20.3 °C 33409.7 hPa SSE 2.6 km/h 9 km/h 92% 20.32 mm WeatherDisplay:10.37 W/m2 RA
17:14 -19.7 °C -20.3 °C 33409.7 hPa South 6.8 km/h 15 km/h 92% 20.32 mm WeatherDisplay:10.37 W/m2 FEW
17:19 -19.7 °C -20.3 °C 33409.7 hPa South 3.1 km/h 9 km/h 92% 12.7 mm WeatherDisplay:10.37 W/m2 FEW
17:24 -19.7 °C -20.3 °C 33409.7 hPa SE 5.6 km/h 9 km/h 92% 12.7 mm WeatherDisplay:10.37 W/m2 FEW
17:29 -19.7 °C -20.3 °C 33409.7 hPa South 0.8 km/h 5.1 km/h 92% 12.7 mm WeatherDisplay:10.37 W/m2 FEW
17:34 -19.7 °C -20.3 °C 33409.7 hPa SE 3.4 km/h 15.6 km/h 92% 12.7 mm WeatherDisplay:10.37 W/m2 FEW
17:39 -19.7 °C -20.3 °C 33409.7 hPa SE 2.9 km/h 9 km/h 92% 7.62 mm WeatherDisplay:10.37 W/m2 FEW
17:44 -19.7 °C -20.3 °C 33409.7 hPa SE 3.7 km/h 9 km/h 92% 12.7 mm WeatherDisplay:10.37 W/m2 RA
17:49 -19.7 °C -20.3 °C 33409.7 hPa SSE 8.9 km/h 20.9 km/h 92% 12.7 mm WeatherDisplay:10.37 W/m2 RA
17:54 -19.7 °C -20.3 °C 33409.7 hPa SE 5.1 km/h 23.8 km/h 92% 12.7 mm WeatherDisplay:10.37 W/m2 FEW
17:59 -19.7 °C -20.3 °C 33409.7 hPa South 5.5 km/h 9 km/h 92% 12.7 mm WeatherDisplay:10.37 W/m2 FEW
18:04 -19.6 °C -20.2 °C 33409.7 hPa SSW 1.6 km/h 18.2 km/h 92% 7.62 mm WeatherDisplay:10.37 W/m2 FEW
18:09 -19.6 °C -20.2 °C 33396.1 hPa SSW 2.9 km/h   92% 7.62 mm WeatherDisplay:10.37 W/m2 FEW
18:15 -19.6 °C -20.2 °C 33396.1 hPa SSE 7.6 km/h 20.8 km/h 92% 7.62 mm WeatherDisplay:10.37 W/m2 FEW
18:20 -19.6 °C -20.2 °C 33396.1 hPa ESE 6.8 km/h 20.8 km/h 92% 7.62 mm WeatherDisplay:10.37 W/m2 FEW
18:25 -19.6 °C -20.2 °C 33396.1 hPa East 5.5 km/h 11.9 km/h 92% 7.62 mm WeatherDisplay:10.37 W/m2 FEW
18:30 -19.6 °C -20.2 °C 33396.1 hPa SSE 10.9 km/h 12.9 km/h 92% 12.7 mm WeatherDisplay:10.37 W/m2 RA
18:35 -19.6 °C -20.2 °C 33396.1 hPa SSE 3.7 km/h 11.9 km/h 92% 12.7 mm WeatherDisplay:10.37 W/m2 RA
18:40 -19.6 °C -20.2 °C 33396.1 hPa SE 6.3 km/h 15 km/h 92% 12.7 mm WeatherDisplay:10.37 W/m2 FEW
18:45 -19.6 °C -20.2 °C 33396.1 hPa Calm     92% 7.62 mm WeatherDisplay:10.37 W/m2 FEW
18:50 -19.6 °C -20.2 °C 33386 hPa East 8.2 km/h 15 km/h 92% 12.7 mm WeatherDisplay:10.37 W/m2 RA
18:55 -19.6 °C -20.2 °C 33386 hPa SE 6 km/h 17.9 km/h 92% 12.7 mm WeatherDisplay:10.37 W/m2 RA
19:00 -19.6 °C -20.2 °C 33386 hPa SSW 7.7 km/h 20.9 km/h 92% 20.32 mm WeatherDisplay:10.37 W/m2 RA
19:05 -19.6 °C -20.2 °C 33386 hPa SE 12.7 km/h 12.7 km/h 92% 20.32 mm WeatherDisplay:10.37 W/m2 RA
19:10 -19.6 °C -20.2 °C 33386 hPa SE 3.9 km/h 12.9 km/h 92% 20.32 mm WeatherDisplay:10.37 W/m2 FEW
19:15 -19.5 °C -20.1 °C 33386 hPa South 5.1 km/h 11.9 km/h 92% 20.32 mm WeatherDisplay:10.37 W/m2 FEW
19:20 -19.5 °C -20.1 °C 33386 hPa SE 4.2 km/h 12.9 km/h 93% 20.32 mm WeatherDisplay:10.37 W/m2 FEW
19:25 -19.5 °C -20 °C 33386 hPa East 1.3 km/h 9 km/h 93% 20.32 mm WeatherDisplay:10.37 W/m2 RA
19:30 -19.5 °C -20 °C 33386 hPa SSE 4.7 km/h 9 km/h 93% 20.32 mm WeatherDisplay:10.37 W/m2 RA
19:35 -19.4 °C -20 °C 33375.8 hPa SSW 5.6 km/h 12.9 km/h 93% 20.32 mm WeatherDisplay:10.37 W/m2 FEW
19:36 -19.4 °C -20 °C 33375.8 hPa SSW 4.7 km/h 17.9 km/h 93% 20.32 mm WeatherDisplay:10.37 W/m2 FEW
19:41 -19.4 °C -20 °C 33375.8 hPa SSE 0.5 km/h 9 km/h 93% 20.32 mm WeatherDisplay:10.37 W/m2 FEW
19:46 -19.4 °C -20 °C 33375.8 hPa SE 2.9 km/h 9 km/h 93% 12.7 mm WeatherDisplay:10.37 W/m2 FEW
19:51 -19.4 °C -20 °C 33375.8 hPa Calm     93% 12.7 mm WeatherDisplay:10.37 W/m2 FEW
19:56 -19.4 °C -20 °C 33375.8 hPa SE 2.6 km/h 26.9 km/h 93% 12.7 mm WeatherDisplay:10.37 W/m2 FEW
20:01 -19.4 °C -20 °C 33375.8 hPa SSE 5 km/h 9 km/h 93% 12.7 mm WeatherDisplay:10.37 W/m2 RA
20:06 -19.4 °C -20 °C 33362.3 hPa SE 8 km/h 12.9 km/h 93% 12.7 mm WeatherDisplay:10.37 W/m2 FEW
20:11 -19.4 °C -20.1 °C 33362.3 hPa South 1 km/h 11.9 km/h 92% 12.7 mm WeatherDisplay:10.37 W/m2 RA
20:16 -19.4 °C -20 °C 33362.3 hPa SSE 7.6 km/h 15 km/h 92% 12.7 mm WeatherDisplay:10.37 W/m2 RA
20:21 -19.3 °C -19.9 °C 33362.3 hPa ESE 6 km/h 11.9 km/h 92% 12.7 mm WeatherDisplay:10.37 W/m2 FEW
20:26 -19.3 °C -19.9 °C 33352.1 hPa Calm   3.1 km/h 92% 12.7 mm WeatherDisplay:10.37 W/m2 RA
20:31 -19.3 °C -19.9 °C 33352.1 hPa SE 5.5 km/h 9 km/h 92% 12.7 mm WeatherDisplay:10.37 W/m2 RA
20:36 -19.3 °C -19.9 °C 33352.1 hPa SSE 0.5 km/h 9 km/h 92% 12.7 mm WeatherDisplay:10.37 W/m2 FEW
20:41 -19.3 °C -19.9 °C 33352.1 hPa SE 0.5 km/h 9 km/h 92% 12.7 mm WeatherDisplay:10.37 W/m2 FEW
20:46 -19.3 °C -19.9 °C 33352.1 hPa SSE 3.1 km/h 9 km/h 92% 12.7 mm WeatherDisplay:10.37 W/m2 FEW
20:51 -19.3 °C -19.9 °C 33352.1 hPa SE 3.1 km/h 9 km/h 92% 12.7 mm WeatherDisplay:10.37 W/m2 FEW
20:56 -19.3 °C -19.9 °C 33352.1 hPa South 2.9 km/h 11.9 km/h 92% 20.32 mm WeatherDisplay:10.37 W/m2 RA
21:01 -19.3 °C -19.9 °C 33352.1 hPa SSW 0.8 km/h 6 km/h 92% 12.7 mm WeatherDisplay:10.37 W/m2 FEW
21:06 -19.2 °C -19.8 °C 33352.1 hPa SE 4.3 km/h 11.9 km/h 92% 12.7 mm WeatherDisplay:10.37 W/m2 FEW
21:11 -19.2 °C -19.8 °C 33352.1 hPa SSE 1.3 km/h 6 km/h 92% 12.7 mm WeatherDisplay:10.37 W/m2 FEW
21:21 -19.2 °C -19.8 °C 33352.1 hPa South 10.3 km/h 10.3 km/h 92% 12.7 mm WeatherDisplay:10.37 W/m2 CLR
21:26 -19.2 °C -19.8 °C 33352.1 hPa ESE 2.1 km/h 5.1 km/h 92% 12.7 mm WeatherDisplay:10.37 W/m2 FEW
21:31 -19.2 °C -19.8 °C 33338.6 hPa SE 1.3 km/h 9 km/h 92% 7.62 mm WeatherDisplay:10.37 W/m2 FEW
21:36 -19.2 °C -19.8 °C 33338.6 hPa East 5.1 km/h 7.7 km/h 92% 7.62 mm WeatherDisplay:10.37 W/m2 FEW
21:41 -19.2 °C -19.8 °C 33352.1 hPa SSE 1.6 km/h 10.3 km/h 92% 7.62 mm WeatherDisplay:10.37 W/m2 FEW
21:46 -19.2 °C -19.8 °C 33338.6 hPa SE 0.8 km/h 23.8 km/h 92% 7.62 mm WeatherDisplay:10.37 W/m2 FEW
21:51 -19.1 °C -19.8 °C 33338.6 hPa SSE 6.8 km/h 17.9 km/h 92% 7.62 mm WeatherDisplay:10.37 W/m2 FEW
21:56 -19.1 °C -19.8 °C 33338.6 hPa SSE 6.3 km/h 15 km/h 92% 0 mm WeatherDisplay:10.37 W/m2 FEW
22:01 -19.1 °C -19.8 °C 33338.6 hPa South 9.8 km/h 23.8 km/h 92% 0 mm WeatherDisplay:10.37 W/m2 FEW
22:06 -19.1 °C -19.8 °C 33352.1 hPa Calm     92% 0 mm WeatherDisplay:10.37 W/m2 FEW
22:11 -19.1 °C -19.8 °C 33352.1 hPa Calm   9 km/h 92% 0 mm WeatherDisplay:10.37 W/m2 FEW
22:16 -19.1 °C -19.7 °C 33338.6 hPa Calm   9 km/h 92% 0 mm WeatherDisplay:10.37 W/m2 FEW
22:21 -19.1 °C -19.7 °C 33338.6 hPa SE 1.8 km/h 9 km/h 93% 0 mm WeatherDisplay:10.37 W/m2 FEW
22:26 -19.1 °C -19.6 °C 33338.6 hPa Calm     93% 0 mm WeatherDisplay:10.37 W/m2 FEW
22:31 -19.1 °C -19.6 °C 33338.6 hPa South 5 km/h 9 km/h 93% 0 mm WeatherDisplay:10.37 W/m2 FEW
22:36 -19.1 °C -19.7 °C 33338.6 hPa Calm     92% 0 mm WeatherDisplay:10.37 W/m2 FEW
22:41 -19.1 °C -19.7 °C 33338.6 hPa ESE 2.3 km/h 15 km/h 92% 0 mm WeatherDisplay:10.37 W/m2 FEW
22:46 -19.1 °C -19.7 °C 33338.6 hPa SE 7.7 km/h 15 km/h 92% 0 mm WeatherDisplay:10.37 W/m2 FEW
22:51 -19.1 °C -19.7 °C 33338.6 hPa SSE 6.8 km/h 20.9 km/h 92% 0 mm WeatherDisplay:10.37 W/m2 FEW
22:56 -19.1 °C -19.7 °C 33338.6 hPa SSE 2.3 km/h 6 km/h 92% 0 mm WeatherDisplay:10.37 W/m2 FEW
23:01 -19.1 °C -19.7 °C 33338.6 hPa SSE 0.5 km/h 6 km/h 92% 0 mm WeatherDisplay:10.37 W/m2 FEW
23:06 -19 °C -19.6 °C 33328.4 hPa SE 0.5 km/h 3.1 km/h 92% 0 mm WeatherDisplay:10.37 W/m2 FEW
23:11 -19 °C -19.6 °C 33328.4 hPa SSE 5.6 km/h 15 km/h 92% 0 mm WeatherDisplay:10.37 W/m2 FEW
23:16 -19 °C -19.6 °C 33328.4 hPa SE 3.9 km/h 9 km/h 92% 0 mm WeatherDisplay:10.37 W/m2 FEW
23:21 -19 °C -19.6 °C 33328.4 hPa SSE 1.8 km/h 9 km/h 92% 0 mm WeatherDisplay:10.37 W/m2 FEW
23:26 -18.9 °C -19.6 °C 33328.4 hPa SE 3.9 km/h 23.3 km/h 92% 0 mm WeatherDisplay:10.37 W/m2 FEW
23:31 -18.9 °C -19.6 °C 33328.4 hPa ENE 6.3 km/h 20.9 km/h 92% 0 mm WeatherDisplay:10.37 W/m2 FEW
23:36 -18.9 °C -19.6 °C 33328.4 hPa SE 6.8 km/h 11.9 km/h 92% 0 mm WeatherDisplay:10.37 W/m2 FEW
23:41 -18.9 °C -19.5 °C 33328.4 hPa ESE 2.1 km/h 5.1 km/h 92% 0 mm WeatherDisplay:10.37 W/m2 FEW
23:46 -18.9 °C -19.5 °C 33328.4 hPa SE 7.6 km/h 10.3 km/h 92% 0 mm WeatherDisplay:10.37 W/m2 FEW
23:51 -18.8 °C -19.5 °C 33328.4 hPa SE 0.3 km/h 5.1 km/h 92% 0 mm WeatherDisplay:10.37 W/m2 FEW
23:56 -18.8 °C -19.5 °C 33328.4 hPa SSE 0.5 km/h 9 km/h 92% 0 mm WeatherDisplay:10.37 W/m2 FEW
Tuulensuunkaari, Veikkola, Suomi
Compliments of Weather Underground - 2.75 mb